This is the latest recevied weather packets stored in our database for station/object WX7FGZ-7. If no packets are shown the sender has not sent any weather packets the latest 10 day(s).
| Time | Temp. | Humidity | Pressure | Rain* | Wind** | Luminosity | Snow |
|---|---|---|---|---|---|---|---|
| 1777450896 | 8.89° C | 32% | 1018.3 hPa | 0 mm | - | - | - |
| 1777450596 | 8.33° C | 33% | 1018.3 hPa | 0 mm | - | - | - |
| 1777450299 | 8.33° C | 34% | 1018.4 hPa | 0 mm | - | - | - |
| 1777449996 | 7.78° C | 34% | 1018.3 hPa | 0 mm | - | - | - |
| 1777449410 | 7.22° C | 34% | 1018.3 hPa | 0 mm | - | - | - |
| 1777448196 | 6.67° C | 39% | 1018.5 hPa | 0 mm | - | - | - |
| 1777447895 | 6.67° C | 40% | 1018.5 hPa | 0 mm | - | - | - |
| 1777447659 | 6.67° C | 37% | 1018.4 hPa | 0 mm | - | - | - |
| 1777447598 | 6.67° C | 37% | 1018.4 hPa | 0 mm | - | - | - |
| 1777447306 | 6.67° C | 38% | 1018.4 hPa | 0 mm | - | - | - |
| 1777447097 | 7.22° C | 37% | 1018.4 hPa | 0 mm | - | - | - |
| 1777447009 | 7.22° C | 37% | 1018.4 hPa | 0 mm | - | - | - |
| 1777446102 | 7.78° C | 33% | 1018.3 hPa | 0 mm | - | - | - |
| 1777445806 | 8.33° C | 31% | 1018.3 hPa | 0 mm | - | - | - |
| 1777445495 | 8.89° C | 31% | 1018.2 hPa | 0 mm | - | - | - |
| 1777444951 | 9.44° C | 30% | 1018.1 hPa | 0 mm | - | - | - |
| 1777444895 | 9.44° C | 30% | 1018.1 hPa | 0 mm | - | - | - |
| 1777444635 | 9.44° C | 30% | 1018.2 hPa | 0 mm | - | - | - |
| 1777444596 | 9.44° C | 30% | 1018.2 hPa | 0 mm | - | - | - |
| 1777444345 | 9.44° C | 29% | 1018.2 hPa | 0 mm | - | - | - |
| 1777444299 | 9.44° C | 29% | 1018.2 hPa | 0 mm | - | - | - |
| 1777444005 | 9.44° C | 29% | 1018.1 hPa | 0 mm | - | - | - |
| 1777443704 | 9.44° C | 27% | 1017.8 hPa | 0 mm | - | - | - |
| 1777443395 | 9.44° C | 27% | 1017.8 hPa | 0 mm | - | - | - |
| 1777443098 | 9.44° C | 26% | 1017.8 hPa | 0 mm | - | - | - |
* Rain latest hour (hover to see other rain measurements)
** Current wind speed in m/s (hover to see current wind gust speed)